Time;durP1;ratioP1;P1;durP2;ratioP2;P2;SDS_P1;SDS_P2;PMS_P1;PMS_P2;Temp;Humidity;BMP_temperature;BMP_pressure;BME280_temperature;BME280_humidity;BME280_pressure;Samples;Min_cycle;Max_cycle;Signal;HPM_P1;HPM_P2
2022/12/30 00:01:07;;;;;;;15.13;9.88;;;;;;;3.85;76.30;102099.47;5052499;28;20024;-83
2022/12/30 00:03:32;;;;;;;23.10;15.32;;;;;;;4.01;76.40;102116.56;5053142;28;20066;-83
2022/12/30 00:05:58;;;;;;;26.58;10.70;;;;;;;3.97;77.93;102111.44;5069516;28;20032;-84
2022/12/30 00:11:07;;;;;;;17.17;10.52;;;;;;;3.95;76.95;102101.19;5069475;28;20075;-83
2022/12/30 00:33:08;;;;;;;13.57;10.48;;;;;;;3.83;77.38;102113.09;5073717;28;20086;-82
2022/12/30 00:35:38;;;;;;;11.07;8.48;;;;;;;4.06;77.55;102152.44;5057968;28;20025;-83
2022/12/30 00:38:03;;;;;;;14.13;9.00;;;;;;;4.06;77.30;102147.31;5073545;28;20025;-83
2022/12/30 00:40:29;;;;;;;24.63;10.07;;;;;;;3.86;77.85;102120.81;5074625;28;20104;-82
2022/12/30 00:43:09;;;;;;;15.88;9.75;;;;;;;3.80;77.81;102110.53;5073422;28;20032;-83
2022/12/30 00:45:40;;;;;;;24.30;9.98;;;;;;;4.01;77.32;102137.03;5073269;28;20047;-83
2022/12/30 00:56:18;;;;;;;13.18;8.93;;;;;;;3.95;76.95;102159.25;5073081;28;20474;-83
2022/12/30 00:58:43;;;;;;;17.70;9.68;;;;;;;3.99;76.73;102146.44;5072613;28;20134;-82
2022/12/30 01:01:09;;;;;;;14.30;9.50;;;;;;;3.70;76.54;102102.81;5056407;28;20025;-82
2022/12/30 01:03:34;;;;;;;16.70;8.98;;;;;;;3.90;76.96;102128.47;5074126;28;20032;-82
2022/12/30 01:06:07;;;;;;;13.00;8.52;;;;;;;3.90;77.17;102141.28;5055949;28;20025;-82
2022/12/30 01:08:33;;;;;;;13.18;8.13;;;;;;;3.89;76.95;102141.28;5056182;28;20020;-83
2022/12/30 01:10:58;;;;;;;15.90;8.70;;;;;;;3.88;77.09;102139.56;5039498;28;20071;-82
2022/12/30 01:13:24;;;;;;;10.30;7.70;;;;;;;3.86;76.99;102142.13;5072456;28;20029;-83
2022/12/30 01:15:49;;;;;;;10.57;9.10;;;;;;;3.64;76.71;102107.09;5055916;28;20071;-83
2022/12/30 01:18:14;;;;;;;14.93;9.55;;;;;;;3.86;77.13;102146.41;5072466;28;20032;-83
2022/12/30 01:20:40;;;;;;;13.65;8.55;;;;;;;3.88;76.79;102137.88;5039222;28;20029;-83
2022/12/30 01:23:05;;;;;;;15.50;9.40;;;;;;;3.76;76.40;102112.25;5089398;28;20037;-83
2022/12/30 01:25:31;;;;;;;17.65;10.55;;;;;;;3.84;77.70;102143.84;5055589;28;20031;-83
2022/12/30 01:27:56;;;;;;;18.00;8.40;;;;;;;3.86;76.88;102147.25;5073351;28;20036;-83
2022/12/30 01:30:22;;;;;;;11.77;8.95;;;;;;;3.70;76.79;102105.38;5072206;28;20028;-83
2022/12/30 01:32:47;;;;;;;12.63;10.00;;;;;;;3.82;76.81;102131.88;5073539;28;20486;-83
2022/12/30 01:35:13;;;;;;;9.30;7.13;;;;;;;3.62;76.80;102096.81;5072377;28;20039;-83
2022/12/30 01:37:38;;;;;;;14.25;8.73;;;;;;;3.71;76.95;102125.00;5072254;28;20033;-82
2022/12/30 01:40:05;;;;;;;15.02;8.57;;;;;;;3.67;76.70;102105.38;5054643;28;20024;-84
2022/12/30 01:42:35;;;;;;;16.23;8.52;;;;;;;3.83;77.11;102128.44;5071941;28;20035;-82
2022/12/30 01:45:19;;;;;;;9.98;7.60;;;;;;;3.87;76.41;102125.06;5056196;28;20035;-83
2022/12/30 01:47:54;;;;;;;13.23;8.90;;;;;;;3.82;76.44;102124.19;5071875;28;20410;-82
2022/12/30 01:50:22;;;;;;;22.50;8.30;;;;;;;3.74;76.70;102121.63;5055786;28;20539;-84
2022/12/30 01:53:27;;;;;;;12.85;8.40;;;;;;;3.72;77.19;102119.03;5072044;28;20146;-83
2022/12/30 01:56:01;;;;;;;13.93;8.80;;;;;;;3.69;76.90;102113.91;5065272;28;20078;-83
2022/12/30 01:58:32;;;;;;;25.60;8.15;;;;;;;3.69;77.08;102106.25;5055952;28;20607;-82
2022/12/30 02:00:58;;;;;;;15.52;7.70;;;;;;;3.57;76.87;102084.88;5055605;28;20376;-82
2022/12/30 02:03:25;;;;;;;15.52;7.82;;;;;;;3.50;76.59;102071.19;5071589;28;20039;-82
2022/12/30 02:05:50;;;;;;;12.52;7.22;;;;;;;3.49;76.24;102071.19;5055319;28;20111;-82
2022/12/30 02:08:19;;;;;;;15.40;9.23;;;;;;;3.55;76.81;102092.56;5054913;28;20024;-82
2022/12/30 02:10:46;;;;;;;16.17;8.20;;;;;;;3.59;76.69;102084.03;5038318;28;20096;-82
2022/12/30 02:13:16;;;;;;;23.77;8.25;;;;;;;3.53;77.82;102089.13;5071852;28;20082;-83
2022/12/30 02:15:56;;;;;;;10.68;7.72;;;;;;;3.31;77.39;102041.28;5055372;28;20502;-83
2022/12/30 02:18:25;;;;;;;18.42;8.98;;;;;;;3.62;76.71;102073.78;5071515;28;20031;-83
2022/12/30 02:21:16;;;;;;;11.20;9.20;;;;;;;3.59;77.93;102093.41;5054872;28;20058;-82
2022/12/30 02:24:00;;;;;;;15.38;8.52;;;;;;;3.58;78.21;102096.81;5072785;28;20028;-82
2022/12/30 02:26:47;;;;;;;15.52;9.70;;;;;;;3.60;78.02;102097.69;5072654;28;20561;-82
2022/12/30 02:29:30;;;;;;;16.92;12.98;;;;;;;3.55;78.04;102095.13;5072430;28;20464;-84
2022/12/30 02:32:43;;;;;;;12.75;9.32;;;;;;;3.60;77.79;102095.13;5072833;28;20039;-82
2022/12/30 02:35:35;;;;;;;13.02;9.75;;;;;;;3.67;77.06;102097.72;5052544;28;20099;-84
2022/12/30 02:38:19;;;;;;;20.05;11.68;;;;;;;3.66;76.73;102098.56;5070767;28;20068;-82
2022/12/30 02:46:29;;;;;;;19.92;9.57;;;;;;;3.55;76.90;102090.00;5070964;28;20035;-83
2022/12/30 02:48:55;;;;;;;14.25;9.18;;;;;;;3.40;76.65;102056.66;5054413;28;20086;-82
2022/12/30 02:54:04;;;;;;;18.90;12.93;;;;;;;3.36;76.86;102072.88;5070590;28;20062;-83
2022/12/30 02:56:30;;;;;;;21.88;12.40;;;;;;;3.42;76.81;102065.19;5054198;28;20048;-82
2022/12/30 03:05:17;;;;;;;12.57;9.10;;;;;;;3.40;76.36;102097.59;5070622;28;20066;-82
2022/12/30 03:07:55;;;;;;;15.35;6.88;;;;;;;3.22;75.75;102097.50;5069878;28;20036;-82
2022/12/30 03:13:14;;;;;;;8.27;6.57;;;;;;;2.97;76.36;102082.06;5071741;28;20422;-82
2022/12/30 03:15:48;;;;;;;16.23;7.97;;;;;;;2.93;77.21;102075.19;5070678;28;20466;-82
2022/12/30 03:18:14;;;;;;;9.50;5.20;;;;;;;3.00;77.01;102101.66;5070509;28;20482;-83
2022/12/30 03:20:40;;;;;;;13.60;10.05;;;;;;;2.89;76.97;102073.50;5070001;28;20054;-82
2022/12/30 03:28:33;;;;;;;14.48;8.18;;;;;;;2.84;77.44;102096.44;5070017;28;20075;-82
2022/12/30 03:31:03;;;;;;;10.30;8.43;;;;;;;2.82;77.58;102098.16;5053497;28;20048;-84
2022/12/30 03:33:29;;;;;;;12.88;9.52;;;;;;;2.74;77.49;102083.59;5053580;28;20028;-82
2022/12/30 03:36:23;;;;;;;19.00;8.85;;;;;;;2.85;77.25;102116.06;5053451;28;20028;-82
2022/12/30 03:38:57;;;;;;;11.13;8.50;;;;;;;2.77;77.66;102104.09;5070521;28;20116;-82
2022/12/30 03:41:22;;;;;;;14.43;7.93;;;;;;;2.79;77.52;102099.84;5037117;28;20089;-82
2022/12/30 03:43:48;;;;;;;24.00;8.52;;;;;;;2.79;77.22;102108.34;5052989;28;20028;-82
2022/12/30 03:46:14;;;;;;;29.17;10.57;;;;;;;2.77;76.73;102109.19;5036609;28;20032;-83
2022/12/30 03:48:39;;;;;;;12.13;7.53;;;;;;;2.67;76.95;102102.31;5052960;28;20050;-83
2022/12/30 03:51:05;;;;;;;15.93;7.80;;;;;;;2.73;76.97;102112.56;5069841;28;20071;-82
2022/12/30 03:53:30;;;;;;;11.95;7.35;;;;;;;2.62;77.07;102103.97;5053200;28;20033;-82
2022/12/30 03:55:56;;;;;;;10.30;6.18;;;;;;;2.56;76.92;102105.66;5069790;28;20036;-82
2022/12/30 03:58:21;;;;;;;12.80;6.82;;;;;;;2.63;77.24;102105.69;5069684;28;20032;-82
2022/12/30 04:00:49;;;;;;;17.63;10.23;;;;;;;2.63;77.10;102110.78;5069432;28;20032;-82
2022/12/30 04:03:15;;;;;;;12.60;8.43;;;;;;;2.55;77.45;102116.69;5052747;28;20016;-85
2022/12/30 04:05:40;;;;;;;16.55;7.35;;;;;;;2.47;77.30;102108.13;5036450;28;20028;-84
2022/12/30 04:08:06;;;;;;;12.63;7.22;;;;;;;2.47;77.79;102110.69;5069284;28;20490;-82
2022/12/30 04:10:31;;;;;;;18.35;9.50;;;;;;;2.66;77.82;102123.59;5070838;28;20036;-82
2022/12/30 04:12:57;;;;;;;11.52;6.07;;;;;;;2.76;76.80;102131.34;5069447;28;20768;-81
2022/12/30 04:15:22;;;;;;;11.70;8.95;;;;;;;2.66;77.14;102121.06;5069846;28;20043;-82
2022/12/30 04:17:48;;;;;;;10.82;8.07;;;;;;;2.92;77.36;102127.19;5052786;28;20037;-82
2022/12/30 04:20:13;;;;;;;18.50;7.55;;;;;;;2.98;76.54;102124.69;5052673;28;20071;-83
2022/12/30 04:22:39;;;;;;;10.27;6.80;;;;;;;3.04;76.05;102124.69;5035959;28;20025;-82
2022/12/30 04:25:05;;;;;;;11.00;7.80;;;;;;;3.14;75.84;102129.00;5069350;28;20025;-82
2022/12/30 04:27:30;;;;;;;19.90;8.50;;;;;;;3.38;74.80;102132.56;5069544;28;20073;-82
2022/12/30 04:29:55;;;;;;;12.55;7.70;;;;;;;3.33;74.19;102141.91;5069565;28;20074;-82
2022/12/30 04:32:21;;;;;;;14.63;7.50;;;;;;;3.12;74.76;102137.53;5052765;28;20398;-81
2022/12/30 04:34:46;;;;;;;13.02;7.72;;;;;;;3.30;74.83;102152.13;5052428;28;20032;-82
2022/12/30 04:37:12;;;;;;;19.77;7.50;;;;;;;3.27;74.41;102152.97;5068762;28;20027;-81
2022/12/30 04:39:37;;;;;;;9.48;6.97;;;;;;;3.27;73.87;102160.66;5052513;28;20383;-83
2022/12/30 04:42:03;;;;;;;10.68;8.52;;;;;;;3.20;74.24;102155.47;5064005;28;20032;-79
2022/12/30 04:44:28;;;;;;;11.00;7.00;;;;;;;3.01;74.33;102136.63;5032334;28;20209;-81
2022/12/30 04:46:54;;;;;;;12.57;7.95;;;;;;;2.97;74.66;102142.56;5049008;28;20032;-81
2022/12/30 04:49:19;;;;;;;8.93;6.55;;;;;;;3.12;73.86;102152.88;5015862;28;20033;-85
2022/12/30 04:51:45;;;;;;;7.60;6.28;;;;;;;2.90;74.29;102140.81;5032104;28;20033;-79
2022/12/30 04:54:10;;;;;;;11.68;6.07;;;;;;;2.80;74.58;102156.06;5019120;28;20178;-81
2022/12/30 04:56:36;;;;;;;10.35;7.68;;;;;;;2.57;74.87;102115.03;5048379;28;20040;-80
2022/12/30 04:59:01;;;;;;;11.93;6.90;;;;;;;2.59;75.44;102146.53;5049070;28;20479;-81
2022/12/30 05:01:26;;;;;;;18.88;10.20;;;;;;;2.67;75.43;102168.75;5031990;28;20025;-80
2022/12/30 05:03:52;;;;;;;12.35;7.10;;;;;;;2.52;76.19;102152.44;5049025;28;20037;-80
2022/12/30 05:06:17;;;;;;;21.85;7.50;;;;;;;2.67;75.89;102167.06;5049449;28;20026;-81
2022/12/30 05:08:43;;;;;;;8.00;6.07;;;;;;;2.73;75.61;102169.63;5061489;28;20033;-80
2022/12/30 05:11:09;;;;;;;13.57;8.85;;;;;;;2.52;76.31;102149.88;5068811;28;20032;-80
2022/12/30 05:13:34;;;;;;;12.23;7.60;;;;;;;2.58;76.28;102152.50;5068010;28;20496;-80
2022/12/30 05:16:00;;;;;;;17.35;10.20;;;;;;;2.79;76.13;102173.97;5070746;28;20040;-80
2022/12/30 05:18:25;;;;;;;21.98;9.88;;;;;;;2.78;76.45;102165.44;5055332;28;20058;-80
2022/12/30 05:20:51;;;;;;;16.55;9.02;;;;;;;2.64;76.08;102132.94;5089125;28;20052;-80
2022/12/30 05:26:15;;;;;;;9.63;6.88;;;;;;;2.85;76.77;102162.09;5072428;28;20039;-80
2022/12/30 05:28:45;;;;;;;16.38;7.53;;;;;;;2.75;77.50;102157.75;5058544;28;20504;-82
2022/12/30 05:31:11;;;;;;;15.32;8.30;;;;;;;2.45;76.96;102104.69;5054907;28;20029;-93
2022/12/30 05:33:37;;;;;;;9.48;5.25;;;;;;;2.74;77.38;102162.81;5036319;28;20032;-81
2022/12/30 05:36:03;;;;;;;10.10;4.60;;;;;;;2.79;77.03;102169.69;5053705;28;20025;-80
2022/12/30 05:38:28;;;;;;;11.52;8.20;;;;;;;2.76;76.99;102161.16;5058227;28;20173;-81
2022/12/30 05:40:54;;;;;;;9.40;7.45;;;;;;;2.63;77.02;102123.56;5051864;28;20033;-80
2022/12/30 05:43:19;;;;;;;12.00;8.48;;;;;;;2.55;77.03;102116.69;5057636;28;20051;-86
2022/12/30 05:45:45;;;;;;;12.75;6.38;;;;;;;2.76;77.42;102159.47;5072642;28;20464;-86
2022/12/30 05:48:10;;;;;;;17.45;9.15;;;;;;;2.44;77.84;102113.19;5071239;28;20494;-79
2022/12/30 05:50:36;;;;;;;20.45;11.68;;;;;;;2.54;77.98;102122.63;5023321;28;20048;-77
2022/12/30 05:53:01;;;;;;;17.08;10.57;;;;;;;2.89;77.52;102170.63;5065224;28;20032;-80
2022/12/30 05:55:27;;;;;;;21.98;13.88;;;;;;;2.81;77.72;102156.94;5065558;28;20029;-78
2022/12/30 05:57:52;;;;;;;14.30;10.32;;;;;;;2.91;77.67;102163.81;5053695;28;20512;-77
2022/12/30 06:00:18;;;;;;;18.00;13.45;;;;;;;2.84;78.06;102157.78;5066283;28;20036;-86
2022/12/30 06:02:43;;;;;;;20.63;11.68;;;;;;;2.85;77.53;102168.88;5071209;28;20499;-83
2022/12/30 06:05:09;;;;;;;21.42;11.30;;;;;;;2.56;77.08;102110.75;5072515;28;20125;-82
2022/12/30 06:07:34;;;;;;;17.52;11.27;;;;;;;2.88;77.57;102174.03;5067378;28;20032;-82
2022/12/30 06:10:00;;;;;;;17.35;11.75;;;;;;;2.75;77.05;102154.31;5054800;28;20025;-86
2022/12/30 06:12:25;;;;;;;19.33;12.18;;;;;;;2.84;76.92;102167.16;5054726;28;20539;-82
2022/12/30 06:14:51;;;;;;;20.42;11.50;;;;;;;2.55;76.84;102109.00;5046227;28;20056;-84
2022/12/30 06:17:16;;;;;;;10.20;7.72;;;;;;;2.80;76.90;102152.66;5070434;28;20059;-85
2022/12/30 06:19:42;;;;;;;18.83;10.93;;;;;;;2.71;76.44;102156.00;5072462;28;20512;-83
2022/12/30 06:22:07;;;;;;;18.38;10.57;;;;;;;2.79;76.51;102162.03;5069932;28;20064;-84
2022/12/30 06:24:33;;;;;;;23.90;10.50;;;;;;;2.59;76.62;102125.25;5086927;28;20037;-84
2022/12/30 06:26:58;;;;;;;18.10;12.00;;;;;;;2.82;76.28;102158.63;5071304;28;20413;-88
2022/12/30 06:29:24;;;;;;;20.50;12.35;;;;;;;2.37;76.59;102097.81;5070211;28;20039;-83
2022/12/30 06:31:49;;;;;;;20.95;13.70;;;;;;;2.65;77.38;102166.16;5068734;28;20529;-82
2022/12/30 06:34:15;;;;;;;24.27;14.00;;;;;;;2.66;77.61;102162.78;5071677;28;20056;-88
2022/12/30 06:36:40;;;;;;;18.88;11.07;;;;;;;2.58;78.03;102152.50;5070165;28;20191;-88
2022/12/30 06:39:06;;;;;;;24.80;14.70;;;;;;;2.73;78.19;102171.34;5034175;28;20433;-83
2022/12/30 06:41:31;;;;;;;22.33;12.95;;;;;;;2.51;78.20;102127.72;5069993;28;20024;-83
2022/12/30 06:43:57;;;;;;;17.00;10.90;;;;;;;2.52;78.22;102121.78;5075184;28;20449;-82
2022/12/30 06:46:22;;;;;;;15.77;10.82;;;;;;;2.82;78.21;102179.94;5071090;28;20032;-82
2022/12/30 06:48:48;;;;;;;23.33;12.68;;;;;;;2.72;78.07;102162.81;5047581;28;20504;-83
2022/12/30 06:51:13;;;;;;;20.67;14.57;;;;;;;2.74;78.41;102167.94;5077549;28;20078;-79
2022/12/30 06:53:39;;;;;;;26.13;13.70;;;;;;;2.70;78.41;102158.53;5071625;28;20475;-83
2022/12/30 06:56:06;;;;;;;20.27;12.02;;;;;;;2.67;78.57;102154.28;5069885;28;20029;-84
2022/12/30 06:58:31;;;;;;;13.13;11.32;;;;;;;2.69;78.37;102152.59;5068857;28;21186;-76
2022/12/30 07:00:57;;;;;;;23.38;13.30;;;;;;;2.76;78.24;102158.59;5069525;28;20067;-80
2022/12/30 07:03:22;;;;;;;16.73;11.20;;;;;;;2.87;78.94;102172.31;5049884;28;20032;-81
2022/12/30 07:05:48;;;;;;;17.27;8.63;;;;;;;2.86;78.40;102179.13;5038769;28;20166;-79
2022/12/30 07:08:13;;;;;;;18.77;13.30;;;;;;;2.70;78.28;102145.78;5083402;28;20033;-89
2022/12/30 07:10:38;;;;;;;22.42;14.10;;;;;;;2.86;77.99;102165.50;5068071;28;20521;-84
2022/12/30 07:13:04;;;;;;;26.88;19.42;;;;;;;2.98;77.99;102180.91;5070534;28;20067;-76
2022/12/30 07:15:29;;;;;;;34.10;22.60;;;;;;;2.99;77.63;102169.84;5069118;28;20466;-84
2022/12/30 07:17:55;;;;;;;39.80;18.75;;;;;;;2.98;76.17;102160.47;5069607;28;20029;-82
2022/12/30 07:20:20;;;;;;;29.92;21.63;;;;;;;3.08;76.03;102184.41;5070746;28;20106;-87
2022/12/30 07:22:46;;;;;;;30.40;22.17;;;;;;;2.93;76.79;102151.88;5070081;28;20028;-84
2022/12/30 07:25:12;;;;;;;29.67;18.92;;;;;;;3.10;76.57;102181.00;5042087;28;20505;-84
2022/12/30 07:27:37;;;;;;;28.88;20.70;;;;;;;3.10;76.37;102180.13;5064985;28;20021;-83
2022/12/30 07:30:03;;;;;;;46.85;21.58;;;;;;;3.12;76.44;102179.28;5059878;28;20032;-89
2022/12/30 07:32:29;;;;;;;32.20;20.23;;;;;;;3.15;76.69;102176.78;5052572;28;20024;-85
2022/12/30 07:34:55;;;;;;;30.75;19.63;;;;;;;3.19;76.75;102169.13;5048138;28;21139;-79
2022/12/30 07:37:20;;;;;;;28.75;18.23;;;;;;;3.13;76.62;102146.91;5068556;28;20020;-86
2022/12/30 07:39:45;;;;;;;36.83;18.95;;;;;;;3.38;76.46;102176.06;5068248;28;20058;-83
2022/12/30 07:42:11;;;;;;;24.55;17.15;;;;;;;3.17;76.34;102129.03;5068762;28;20075;-81
2022/12/30 07:44:37;;;;;;;20.77;13.75;;;;;;;3.54;75.81;102175.28;5070093;28;20086;-87
2022/12/30 07:47:04;;;;;;;24.65;16.55;;;;;;;3.71;75.42;102189.00;5065263;28;20040;-84
2022/12/30 07:49:29;;;;;;;19.15;15.45;;;;;;;3.78;76.07;102189.88;5016434;28;20041;-85
2022/12/30 07:51:55;;;;;;;27.70;19.23;;;;;;;3.85;75.72;102191.63;5006256;28;20036;-82
2022/12/30 07:54:20;;;;;;;26.55;18.02;;;;;;;3.91;75.61;102196.75;5010955;28;20121;-86
2022/12/30 07:56:46;;;;;;;32.05;16.00;;;;;;;3.83;75.44;102172.81;5043923;28;20082;-83
2022/12/30 07:59:14;;;;;;;32.22;19.70;;;;;;;3.96;75.77;102182.28;5045953;28;20394;-82
2022/12/30 08:01:40;;;;;;;31.00;18.05;;;;;;;4.09;75.91;102201.09;5018976;28;20516;-79
2022/12/30 08:04:05;;;;;;;33.22;17.73;;;;;;;4.12;75.68;102193.41;5048935;28;20029;-83
2022/12/30 08:06:31;;;;;;;34.15;19.02;;;;;;;4.27;75.32;102203.69;5019094;28;20069;-85
2022/12/30 08:08:56;;;;;;;33.00;18.60;;;;;;;4.25;75.01;102194.31;5045473;28;20045;-81
2022/12/30 08:11:22;;;;;;;35.15;19.45;;;;;;;4.30;74.92;102196.00;5028744;28;20507;-80
2022/12/30 08:13:47;;;;;;;33.53;19.25;;;;;;;4.19;74.53;102163.53;5054280;28;20025;-86
2022/12/30 08:16:14;;;;;;;39.85;19.73;;;;;;;4.34;74.18;102188.34;5032324;28;20561;-82
2022/12/30 08:18:40;;;;;;;37.88;19.77;;;;;;;4.49;74.55;102207.16;5047557;28;20157;-87
2022/12/30 08:21:07;;;;;;;32.42;24.10;;;;;;;4.55;74.02;102198.63;5032136;28;20502;-84
2022/12/30 08:23:33;;;;;;;37.85;21.77;;;;;;;4.47;74.31;102193.50;5022506;28;20028;-83
2022/12/30 08:26:08;;;;;;;32.75;19.95;;;;;;;4.61;74.12;102214.84;5043655;28;20037;-84
2022/12/30 08:28:34;;;;;;;40.13;21.58;;;;;;;4.76;72.96;102208.03;5041569;28;20147;-90
2022/12/30 08:31:09;;;;;;;40.75;21.63;;;;;;;4.76;72.91;102193.50;5031465;28;20120;-78
2022/12/30 08:33:34;;;;;;;34.28;16.20;;;;;;;4.79;72.88;102192.66;5032607;28;20111;-81
2022/12/30 08:36:02;;;;;;;25.13;14.85;;;;;;;4.94;73.19;102207.19;5049647;28;20105;-83
2022/12/30 08:38:27;;;;;;;28.25;13.18;;;;;;;4.72;73.14;102176.44;5032057;28;20025;-85
2022/12/30 08:40:52;;;;;;;29.63;15.02;;;;;;;4.90;73.19;102206.31;5048031;28;20107;-87
2022/12/30 08:43:20;;;;;;;23.60;15.70;;;;;;;4.97;73.25;102191.78;5048108;28;20029;-82
2022/12/30 08:45:54;;;;;;;24.38;11.95;;;;;;;4.90;72.98;102181.53;5028470;28;20022;-82
2022/12/30 08:48:20;;;;;;;23.55;13.13;;;;;;;5.17;73.02;102214.00;5020614;28;20033;-82
2022/12/30 08:50:45;;;;;;;26.50;10.75;;;;;;;5.14;73.30;102197.75;5028818;28;20076;-82
2022/12/30 08:53:11;;;;;;;16.83;11.15;;;;;;;5.21;72.92;102185.75;5053510;28;20029;-88
2022/12/30 08:55:36;;;;;;;13.93;10.20;;;;;;;5.35;72.59;102194.31;5051773;28;20521;-83
2022/12/30 08:58:02;;;;;;;16.15;10.20;;;;;;;5.38;73.03;102196.84;5052236;28;20037;-83
2022/12/30 09:00:27;;;;;;;22.20;11.73;;;;;;;5.57;73.04;102215.63;5052251;28;20036;-83
2022/12/30 09:02:53;;;;;;;23.95;12.63;;;;;;;5.64;72.61;102207.06;5053513;28;20460;-83
2022/12/30 09:05:18;;;;;;;25.52;15.40;;;;;;;5.50;73.02;102188.25;5051041;28;20025;-80
2022/12/30 09:07:44;;;;;;;22.90;10.98;;;;;;;5.63;73.43;102205.34;5016895;28;20560;-82
2022/12/30 09:10:11;;;;;;;22.15;11.95;;;;;;;5.66;72.75;102184.78;5052059;28;20029;-83
2022/12/30 09:12:37;;;;;;;19.33;12.00;;;;;;;5.73;72.72;102186.47;5051951;28;20453;-84
2022/12/30 09:15:03;;;;;;;23.10;11.40;;;;;;;5.89;72.11;102177.81;5052482;28;20561;-82
2022/12/30 09:17:28;;;;;;;23.05;11.95;;;;;;;6.02;72.30;102194.94;5031639;28;20033;-84
2022/12/30 09:19:54;;;;;;;24.70;10.90;;;;;;;6.16;72.48;102191.44;5027036;28;20068;-82
2022/12/30 09:22:19;;;;;;;23.48;10.88;;;;;;;6.21;72.29;102182.00;5048469;28;20048;-78
2022/12/30 09:24:45;;;;;;;27.08;15.30;;;;;;;6.11;71.40;102144.38;5046525;28;20029;-80
2022/12/30 09:27:10;;;;;;;21.95;13.35;;;;;;;6.41;71.25;102179.28;5050381;28;20116;-83
2022/12/30 09:29:37;;;;;;;26.02;14.38;;;;;;;6.53;70.82;102177.47;5043586;28;20124;-84
2022/12/30 09:32:03;;;;;;;25.58;11.60;;;;;;;6.64;70.76;102176.53;5050759;28;20040;-86
2022/12/30 09:34:28;;;;;;;35.47;14.85;;;;;;;6.66;70.32;102177.38;5031786;28;20543;-85
2022/12/30 09:36:53;;;;;;;18.67;9.65;;;;;;;6.70;70.46;102158.50;5048705;28;20040;-79
2022/12/30 09:39:30;;;;;;;19.58;9.63;;;;;;;6.70;70.28;102132.78;5034212;28;20021;-81
2022/12/30 09:44:56;;;;;;;20.08;8.60;;;;;;;6.86;69.91;102134.34;5048942;28;20043;-82
2022/12/30 09:47:27;;;;;;;24.15;13.30;;;;;;;7.03;69.98;102153.03;5050335;28;20127;-82
2022/12/30 09:49:57;;;;;;;15.52;10.05;;;;;;;6.96;70.16;102146.25;5010571;28;20131;-81
2022/12/30 09:52:29;;;;;;;24.00;11.82;;;;;;;7.06;70.08;102157.28;5051157;28;20486;-81
2022/12/30 09:55:27;;;;;;;20.65;12.63;;;;;;;7.15;69.66;102154.63;5032009;28;20014;-86
2022/12/30 09:57:56;;;;;;;29.00;13.57;;;;;;;7.23;69.66;102144.25;5049198;28;20132;-87
2022/12/30 10:00:22;;;;;;;19.50;12.20;;;;;;;7.36;68.64;102140.66;5034061;28;20090;-82
2022/12/30 10:02:51;;;;;;;31.35;12.27;;;;;;;7.39;69.02;102150.97;5031995;28;20391;-85
2022/12/30 10:05:16;;;;;;;24.65;14.55;;;;;;;7.44;68.95;102154.31;5050427;28;20036;-86
2022/12/30 10:07:50;;;;;;;23.27;11.57;;;;;;;7.53;68.68;102149.06;5033569;28;20029;-87
2022/12/30 10:10:20;;;;;;;31.45;12.88;;;;;;;7.51;68.73;102144.81;5049766;28;20021;-84
2022/12/30 10:12:51;;;;;;;24.25;13.05;;;;;;;7.54;68.60;102152.47;5034917;28;20021;-89
2022/12/30 10:15:33;;;;;;;27.67;15.63;;;;;;;7.60;69.00;102145.53;5050498;28;21482;-84
2022/12/30 10:18:29;;;;;;;34.53;15.95;;;;;;;7.65;68.77;102138.59;5051865;28;20029;-85
2022/12/30 10:21:27;;;;;;;32.90;15.85;;;;;;;7.76;67.99;102131.56;5037199;28;20053;-86
2022/12/30 10:24:20;;;;;;;36.22;14.70;;;;;;;7.88;67.98;102145.19;5020453;28;20037;-86
2022/12/30 10:26:47;;;;;;;31.77;14.00;;;;;;;8.02;67.68;102143.25;5050125;28;20021;-80
2022/12/30 10:29:21;;;;;;;24.75;12.52;;;;;;;7.93;67.25;102118.47;5048722;28;20028;-80
2022/12/30 10:31:47;;;;;;;40.85;15.82;;;;;;;8.05;67.18;102122.59;5048119;28;20117;-81
2022/12/30 10:34:29;;;;;;;37.85;15.25;;;;;;;8.05;66.46;102114.84;5015287;28;20032;-84
2022/12/30 10:37:03;;;;;;;36.22;18.60;;;;;;;8.12;66.45;102119.06;5034757;28;20151;-80
2022/12/30 10:39:33;;;;;;;45.20;17.95;;;;;;;8.22;66.08;102133.50;5029240;28;20124;-85
2022/12/30 10:42:02;;;;;;;35.97;15.82;;;;;;;8.22;65.91;102120.63;5025570;28;20033;-81
2022/12/30 10:44:30;;;;;;;28.05;14.40;;;;;;;8.42;65.71;102122.06;5049863;28;20060;-79
2022/12/30 10:47:24;;;;;;;33.58;17.23;;;;;;;8.58;65.40;102118.38;5033649;28;20032;-78
2022/12/30 10:50:06;;;;;;;32.90;16.50;;;;;;;8.71;66.41;102114.69;5039219;28;20143;-80
2022/12/30 10:52:32;;;;;;;42.67;18.08;;;;;;;8.94;65.61;102106.53;5029563;28;20029;-80
2022/12/30 10:54:57;;;;;;;36.10;17.55;;;;;;;9.12;65.53;102102.75;5045760;28;20090;-84
2022/12/30 10:57:25;;;;;;;32.50;16.45;;;;;;;9.25;64.33;102101.66;5028317;28;20060;-81
2022/12/30 10:59:54;;;;;;;34.30;16.23;;;;;;;9.53;63.28;102101.91;5020853;28;20028;-82
2022/12/30 11:02:22;;;;;;;35.90;18.10;;;;;;;9.82;61.67;102088.34;5025589;28;20124;-89
2022/12/30 11:04:48;;;;;;;37.70;14.07;;;;;;;10.03;61.56;102085.31;5029517;28;20026;-86
2022/12/30 11:07:14;;;;;;;27.75;15.25;;;;;;;10.27;61.00;102103.72;5047984;28;20486;-85
2022/12/30 11:09:40;;;;;;;39.25;15.80;;;;;;;10.61;58.58;102095.97;5050018;28;20029;-84
2022/12/30 11:15:13;;;;;;;58.40;17.85;;;;;;;10.02;60.25;102091.34;5049862;28;20039;-82
2022/12/30 11:17:50;;;;;;;48.33;18.02;;;;;;;9.99;60.61;102090.56;5012730;28;20091;-85
2022/12/30 11:20:15;;;;;;;38.97;17.60;;;;;;;9.84;60.83;102073.69;5024311;28;20103;-83
2022/12/30 11:22:45;;;;;;;34.72;16.38;;;;;;;9.84;60.99;102060.75;5050159;28;20025;-83
2022/12/30 11:25:27;;;;;;;30.77;16.80;;;;;;;9.90;61.00;102078.69;5032671;28;20058;-83
2022/12/30 11:28:00;;;;;;;32.38;16.65;;;;;;;9.91;61.44;102076.97;5045873;28;20087;-88
2022/12/30 11:30:31;;;;;;;33.53;16.92;;;;;;;9.70;61.30;102050.72;5025835;28;20111;-85
2022/12/30 11:32:58;;;;;;;29.80;13.95;;;;;;;9.98;60.54;102087.13;5033344;28;20036;-87
2022/12/30 11:35:50;;;;;;;24.67;13.20;;;;;;;9.86;61.23;102089.16;5029769;28;20481;-89
2022/12/30 11:38:33;;;;;;;30.15;13.95;;;;;;;9.89;61.26;102083.91;5046420;28;20120;-80
2022/12/30 11:41:18;;;;;;;32.92;15.65;;;;;;;9.61;61.51;102047.50;5028867;28;20061;-84
2022/12/30 11:43:47;;;;;;;23.38;11.30;;;;;;;9.83;61.76;102074.53;5050842;28;20151;-86
2022/12/30 11:46:20;;;;;;;37.67;16.83;;;;;;;9.92;61.57;102081.25;5049609;28;20047;-81
2022/12/30 11:48:50;;;;;;;28.45;16.85;;;;;;;9.94;61.76;102082.94;5047135;28;20033;-80
2022/12/30 11:51:31;;;;;;;31.50;14.60;;;;;;;9.81;61.52;102060.81;5031551;28;20032;-80
2022/12/30 11:54:21;;;;;;;36.67;15.93;;;;;;;10.04;61.14;102087.00;5032093;28;20387;-79
2022/12/30 11:56:53;;;;;;;51.20;20.10;;;;;;;9.89;61.09;102064.09;5043417;28;20445;-80
2022/12/30 11:59:28;;;;;;;41.35;16.98;;;;;;;9.99;61.43;102075.06;5049140;28;20092;-83
2022/12/30 12:01:55;;;;;;;39.17;16.05;;;;;;;10.05;61.69;102085.25;5032745;28;20418;-82
2022/12/30 12:04:37;;;;;;;35.63;16.10;;;;;;;10.03;61.25;102077.56;5016332;28;20049;-81
2022/12/30 12:07:18;;;;;;;35.70;16.40;;;;;;;9.93;61.49;102049.34;5049434;28;20068;-83
2022/12/30 12:10:02;;;;;;;40.63;17.00;;;;;;;10.09;61.10;102078.28;5049355;28;20021;-82
2022/12/30 12:12:32;;;;;;;28.15;13.57;;;;;;;10.07;60.91;102058.47;5050490;28;20521;-82
2022/12/30 12:15:20;;;;;;;26.75;14.93;;;;;;;10.23;60.55;102071.09;5032937;28;20056;-81
2022/12/30 12:18:21;;;;;;;31.67;15.43;;;;;;;10.23;60.58;102045.22;5050231;28;20025;-81
2022/12/30 12:20:55;;;;;;;34.10;14.63;;;;;;;10.29;60.54;102056.25;5049225;28;20029;-81
2022/12/30 12:23:58;;;;;;;50.75;18.30;;;;;;;10.37;60.69;102058.66;5049318;28;20035;-81
2022/12/30 12:26:41;;;;;;;42.38;18.08;;;;;;;10.25;60.50;102033.09;5050114;28;20222;-82
2022/12/30 12:29:09;;;;;;;50.55;21.38;;;;;;;10.22;60.49;102046.09;5034593;28;20080;-81
2022/12/30 12:31:55;;;;;;;30.80;16.67;;;;;;;10.14;61.24;102033.34;5032838;28;20025;-81